TimeCST,TemperatureF,Dew PointF,Humidity,Sea Level PressureIn,VisibilityMPH,Wind Direction,Wind SpeedMPH,Gust SpeedMPH,PrecipitationIn,Events,Conditions,WindDirDegrees,DateUTC
12:15 AM,33.8,30.2,87,29.65,5.0,WSW,4.6,-,N/A,,Overcast,240,2013-02-14 06:15:00
12:35 AM,33.8,30.2,87,29.65,4.0,WSW,3.5,-,N/A,,Overcast,240,2013-02-14 06:35:00
12:55 AM,30.2,28.4,93,29.64,4.0,Calm,Calm,-,N/A,,Overcast,0,2013-02-14 06:55:00
1:15 AM,30.2,30.2,100,29.64,3.0,SW,3.5,-,N/A,,Overcast,230,2013-02-14 07:15:00
1:35 AM,32.0,30.2,93,29.64,3.0,SW,5.8,-,N/A,,Overcast,220,2013-02-14 07:35:00
1:55 AM,30.2,30.2,100,29.64,2.0,SW,4.6,-,N/A,,Overcast,220,2013-02-14 07:55:00
2:15 AM,30.2,28.4,93,29.63,2.0,Calm,Calm,-,N/A,,Overcast,0,2013-02-14 08:15:00
2:35 AM,30.2,28.4,93,29.63,3.0,Calm,Calm,-,N/A,,Overcast,0,2013-02-14 08:35:00
2:55 AM,30.2,30.2,100,29.62,2.0,Calm,Calm,-,N/A,,Overcast,0,2013-02-14 08:55:00
3:15 AM,30.2,28.4,93,29.62,2.5,Calm,Calm,-,N/A,,Overcast,0,2013-02-14 09:15:00
3:35 AM,28.4,28.4,100,29.62,2.5,Calm,Calm,-,N/A,,Overcast,0,2013-02-14 09:35:00
3:55 AM,32.0,30.2,93,29.61,1.5,Calm,Calm,-,N/A,,Overcast,0,2013-02-14 09:55:00
4:15 AM,30.2,28.4,93,29.61,1.2,Calm,Calm,-,N/A,,Overcast,0,2013-02-14 10:15:00
4:35 AM,30.2,30.2,100,29.61,1.2,Calm,Calm,-,N/A,,Overcast,0,2013-02-14 10:35:00
4:55 AM,28.4,26.6,93,29.61,1.0,Calm,Calm,-,N/A,,Overcast,0,2013-02-14 10:55:00
5:15 AM,30.2,28.4,93,29.61,1.0,Calm,Calm,-,N/A,,Overcast,0,2013-02-14 11:15:00
5:35 AM,30.2,30.2,100,29.61,1.0,Calm,Calm,-,N/A,,Overcast,0,2013-02-14 11:35:00
5:55 AM,28.4,28.4,100,29.61,0.8,Calm,Calm,-,N/A,,Overcast,0,2013-02-14 11:55:00
6:15 AM,30.2,30.2,100,29.61,0.8,Calm,Calm,-,0.01,,Overcast,0,2013-02-14 12:15:00
6:35 AM,32.0,30.2,93,29.60,0.5,NNE,9.2,-,0.02,,Overcast,30,2013-02-14 12:35:00
6:55 AM,28.4,28.4,100,29.61,1.0,ENE,10.4,-,0.02,,Overcast,60,2013-02-14 12:55:00
7:15 AM,30.2,28.4,93,29.62,1.0,NE,10.4,-,N/A,,Overcast,50,2013-02-14 13:15:00
7:35 AM,30.2,28.4,93,29.62,1.2,NE,15.0,-,N/A,,Overcast,50,2013-02-14 13:35:00
7:55 AM,33.8,28.4,81,29.63,1.0,NE,12.7,18.4,N/A,,Overcast,50,2013-02-14 13:55:00
8:15 AM,30.2,28.4,93,29.63,0.5,NE,10.4,-,N/A,,Overcast,40,2013-02-14 14:15:00
8:35 AM,30.2,28.4,93,29.62,0.5,NE,12.7,-,N/A,,Overcast,40,2013-02-14 14:35:00
8:55 AM,28.4,28.4,100,29.63,1.0,NNE,13.8,19.6,N/A,,Overcast,30,2013-02-14 14:55:00
9:15 AM,28.4,28.4,100,29.62,1.2,NNE,13.8,19.6,N/A,,Overcast,30,2013-02-14 15:15:00
9:35 AM,30.2,28.4,93,29.62,1.2,NNE,13.8,21.9,N/A,,Overcast,30,2013-02-14 15:35:00
9:55 AM,30.2,28.4,93,29.63,2.0,NNE,10.4,18.4,N/A,,Overcast,30,2013-02-14 15:55:00
10:15 AM,30.2,26.6,86,29.63,3.0,North,11.5,18.4,N/A,,Overcast,10,2013-02-14 16:15:00
10:35 AM,30.2,26.6,86,29.63,5.0,NNE,11.5,17.3,N/A,,Overcast,20,2013-02-14 16:35:00
10:55 AM,30.2,28.4,93,29.64,10.0,North,13.8,17.3,N/A,,Overcast,10,2013-02-14 16:55:00
11:15 AM,30.2,28.4,93,29.65,10.0,North,11.5,20.7,N/A,,Overcast,10,2013-02-14 17:15:00
11:35 AM,30.2,28.4,93,29.65,10.0,North,10.4,-,N/A,,Overcast,10,2013-02-14 17:35:00
11:55 AM,30.2,28.4,93,29.65,7.0,North,12.7,17.3,N/A,,Overcast,10,2013-02-14 17:55:00
12:15 PM,30.2,26.6,86,29.65,9.0,NNE,12.7,-,N/A,,Overcast,20,2013-02-14 18:15:00
12:35 PM,32.0,26.6,80,29.65,10.0,North,13.8,-,N/A,,Overcast,360,2013-02-14 18:35:00
12:55 PM,32.0,28.4,87,29.66,4.0,North,11.5,18.4,N/A,,Overcast,360,2013-02-14 18:55:00
1:15 PM,32.0,26.6,80,29.66,3.0,North,11.5,-,N/A,,Overcast,360,2013-02-14 19:15:00
1:35 PM,30.2,28.4,93,29.67,1.8,North,11.5,-,N/A,,Overcast,350,2013-02-14 19:35:00
1:55 PM,32.0,28.4,87,29.67,2.0,North,10.4,-,N/A,,Overcast,350,2013-02-14 19:55:00
2:15 PM,32.0,28.4,87,29.69,1.8,North,12.7,18.4,N/A,,Overcast,360,2013-02-14 20:15:00
2:35 PM,32.0,28.4,87,29.70,2.5,North,11.5,17.3,N/A,,Overcast,10,2013-02-14 20:35:00
2:55 PM,32.0,26.6,80,29.71,8.0,North,13.8,19.6,N/A,,Overcast,10,2013-02-14 20:55:00
3:15 PM,30.2,24.8,80,29.73,10.0,North,13.8,23.0,N/A,,Mostly Cloudy,10,2013-02-14 21:15:00
3:35 PM,30.2,24.8,80,29.75,3.0,NNE,11.5,20.7,N/A,,Mostly Cloudy,20,2013-02-14 21:35:00
3:55 PM,30.2,24.8,80,29.76,2.0,North,12.7,18.4,N/A,,Overcast,360,2013-02-14 21:55:00
4:15 PM,30.2,23.0,75,29.78,4.0,North,15.0,20.7,N/A,,Overcast,360,2013-02-14 22:15:00
4:35 PM,28.4,24.8,86,29.79,2.5,North,11.5,17.3,N/A,,Overcast,360,2013-02-14 22:35:00
4:55 PM,28.4,23.0,80,29.81,2.5,North,13.8,-,N/A,,Overcast,350,2013-02-14 22:55:00
5:15 PM,26.6,21.2,80,29.82,3.0,North,12.7,-,N/A,,Overcast,360,2013-02-14 23:15:00
5:35 PM,26.6,24.8,93,29.84,8.0,NNW,12.7,18.4,N/A,,Overcast,340,2013-02-14 23:35:00
5:55 PM,26.6,23.0,86,29.86,10.0,NNW,17.3,23.0,N/A,,Overcast,340,2013-02-14 23:55:00
6:15 PM,26.6,19.4,74,29.87,10.0,North,17.3,21.9,N/A,,Overcast,350,2013-02-15 00:15:00
6:55 PM,24.8,14.0,64,29.89,10.0,North,13.8,17.3,N/A,,Overcast,350,2013-02-15 00:55:00
7:15 PM,24.8,14.0,64,29.90,10.0,North,9.2,-,N/A,,Overcast,350,2013-02-15 01:15:00
7:35 PM,24.8,15.8,69,29.90,10.0,North,8.1,-,N/A,,Overcast,350,2013-02-15 01:35:00
7:55 PM,24.8,15.8,69,29.91,10.0,North,10.4,-,N/A,,Overcast,350,2013-02-15 01:55:00
8:15 PM,24.8,17.6,74,29.92,10.0,North,9.2,-,N/A,,Overcast,350,2013-02-15 02:15:00
8:35 PM,24.8,15.8,69,29.93,10.0,North,15.0,-,N/A,,Overcast,360,2013-02-15 02:35:00
8:55 PM,23.0,12.2,63,29.93,10.0,North,15.0,-,N/A,,Overcast,350,2013-02-15 02:55:00
9:15 PM,21.2,10.4,63,29.94,10.0,North,12.7,17.3,N/A,,Overcast,360,2013-02-15 03:15:00
9:35 PM,21.2,10.4,63,29.95,10.0,North,11.5,-,N/A,,Overcast,360,2013-02-15 03:35:00
9:55 PM,21.2,10.4,63,29.95,10.0,North,10.4,-,N/A,,Overcast,360,2013-02-15 03:55:00
10:15 PM,21.2,10.4,63,29.96,10.0,North,10.4,16.1,N/A,,Overcast,360,2013-02-15 04:15:00
10:35 PM,19.4,8.6,63,29.96,10.0,North,10.4,20.7,N/A,,Overcast,350,2013-02-15 04:35:00
10:55 PM,19.4,8.6,63,29.97,10.0,NNW,6.9,-,N/A,,Overcast,340,2013-02-15 04:55:00
11:15 PM,19.4,8.6,63,29.97,10.0,NNW,8.1,-,N/A,,Overcast,340,2013-02-15 05:15:00
11:35 PM,19.4,8.6,63,29.98,10.0,NNW,8.1,-,N/A,,Overcast,340,2013-02-15 05:35:00
11:55 PM,19.4,10.4,68,29.98,10.0,NNW,5.8,-,N/A,,Overcast,330,2013-02-15 05:55:00